Time;durP1;ratioP1;P1;durP2;ratioP2;P2;SDS_P1;SDS_P2;PMS_P1;PMS_P2;Temp;Humidity;BMP_temperature;BMP_pressure;BME280_temperature;BME280_humidity;BME280_pressure;Samples;Min_cycle;Max_cycle;Signal;HPM_P1;HPM_P2
2023/09/25 00:01:47;;;;;;;6.38;2.50;;;15.50;99.90;;;14.94;100.00;101463.53;4192168;28;20488;-76
2023/09/25 00:03:48;;;;;;;4.90;2.45;;;15.50;99.90;;;14.95;100.00;101465.19;4202910;28;20028;-76
2023/09/25 00:05:49;;;;;;;4.88;2.63;;;15.60;99.90;;;14.99;100.00;101468.38;4189256;28;20057;-75
2023/09/25 00:07:50;;;;;;;5.55;3.35;;;15.50;99.90;;;15.00;100.00;101470.84;4186230;28;20092;-76
2023/09/25 00:09:51;;;;;;;5.00;3.40;;;15.60;99.90;;;15.02;100.00;101470.69;4190516;28;20028;-75
2023/09/25 00:11:51;;;;;;;10.68;2.92;;;15.60;99.90;;;15.03;100.00;101467.84;4185072;28;20033;-76
2023/09/25 00:13:53;;;;;;;4.80;3.13;;;15.60;99.90;;;15.05;100.00;101468.53;4196908;28;20028;-76
2023/09/25 00:15:54;;;;;;;4.50;2.92;;;15.60;99.90;;;15.03;100.00;101467.84;4187542;28;20021;-76
2023/09/25 00:17:54;;;;;;;7.00;2.80;;;15.70;99.90;;;15.05;100.00;101468.53;4201317;28;20028;-75
2023/09/25 00:19:55;;;;;;;5.93;2.95;;;15.70;99.90;;;15.08;100.00;101467.38;4200833;28;20074;-75
2023/09/25 00:21:56;;;;;;;6.18;3.03;;;15.70;99.90;;;15.09;100.00;101461.88;4202678;28;20070;-75
2023/09/25 00:23:57;;;;;;;3.88;3.13;;;15.70;99.90;;;15.09;100.00;101455.72;4202490;28;20042;-75
2023/09/25 00:26:06;;;;;;;5.28;2.65;;;15.70;99.90;;;15.18;100.00;101471.50;4196984;28;20032;-75
2023/09/25 00:28:07;;;;;;;9.30;3.38;;;15.80;99.90;;;15.19;100.00;101467.00;4184789;28;20025;-75
2023/09/25 00:30:09;;;;;;;5.90;2.35;;;15.80;99.90;;;15.21;100.00;101465.00;4197832;28;20017;-75
2023/09/25 00:32:09;;;;;;;5.18;2.53;;;15.80;99.90;;;15.25;100.00;101467.19;4200989;28;20027;-76
2023/09/25 00:34:12;;;;;;;9.40;3.45;;;15.90;99.90;;;15.27;100.00;101464.34;4185909;28;20484;-76
2023/09/25 00:36:14;;;;;;;5.85;2.80;;;15.90;99.90;;;15.32;100.00;101465.47;4197494;28;20037;-75
2023/09/25 00:38:15;;;;;;;5.15;2.63;;;15.90;99.90;;;15.35;100.00;101470.47;4188685;28;20029;-75
2023/09/25 00:40:21;;;;;;;9.80;2.53;;;15.90;99.90;;;15.41;100.00;101471.63;4184665;28;20032;-76
2023/09/25 00:42:22;;;;;;;4.35;2.33;;;16.00;99.90;;;15.43;100.00;101467.81;4192331;28;20077;-76
2023/09/25 00:44:23;;;;;;;4.25;2.50;;;16.00;99.90;;;15.47;100.00;101469.13;4200663;28;20025;-76
2023/09/25 00:46:25;;;;;;;5.75;2.78;;;16.10;99.90;;;15.52;100.00;101463.31;4188888;28;20036;-76
2023/09/25 00:48:28;;;;;;;4.95;2.38;;;16.10;99.90;;;15.58;100.00;101473.28;4200698;28;20031;-76
2023/09/25 00:50:31;;;;;;;5.67;2.53;;;16.20;99.90;;;15.64;100.00;101477.09;4193609;28;20043;-76
2023/09/25 00:52:33;;;;;;;5.65;2.78;;;16.20;99.90;;;15.65;100.00;101473.44;4185960;28;20271;-76
2023/09/25 00:54:35;;;;;;;5.35;2.65;;;16.30;99.90;;;15.69;100.00;101474.72;4197786;28;20021;-76
2023/09/25 00:56:35;;;;;;;6.57;2.30;;;16.30;99.90;;;15.73;100.00;101487.53;4184423;28;20064;-76
2023/09/25 00:58:36;;;;;;;6.10;2.33;;;16.30;99.90;;;15.76;100.00;101486.34;4191109;28;20039;-76
2023/09/25 01:00:38;;;;;;;3.88;2.30;;;16.40;99.90;;;15.78;100.00;101479.03;4185253;28;20029;-76
2023/09/25 01:02:39;;;;;;;4.90;2.35;;;16.40;99.90;;;15.79;100.00;101478.03;4197775;28;20060;-75
2023/09/25 01:04:40;;;;;;;7.97;3.45;;;16.40;99.90;;;15.85;100.00;101482.66;4171064;28;20044;-75
2023/09/25 01:06:43;;;;;;;4.28;2.70;;;16.50;99.90;;;15.88;100.00;101483.16;4185404;28;20025;-76
2023/09/25 01:08:43;;;;;;;5.07;2.40;;;16.50;99.90;;;15.93;100.00;101487.94;4185488;28;20032;-75
2023/09/25 01:10:46;;;;;;;3.55;2.13;;;16.50;99.90;;;15.96;100.00;101483.13;4186776;28;20079;-75
2023/09/25 01:12:49;;;;;;;6.97;3.10;;;16.60;99.90;;;16.00;100.00;101486.25;4188005;28;20456;-75
2023/09/25 01:14:49;;;;;;;4.95;2.25;;;16.60;99.90;;;16.05;100.00;101494.53;4183977;28;20059;-75
2023/09/25 01:16:50;;;;;;;4.65;2.63;;;16.60;99.90;;;16.07;100.00;101489.88;4195595;28;20036;-75
2023/09/25 01:18:51;;;;;;;7.20;3.03;;;16.70;99.90;;;16.08;100.00;101488.03;4201745;28;20028;-76
2023/09/25 01:20:52;;;;;;;6.20;2.45;;;16.70;99.90;;;16.10;100.00;101494.84;4197578;28;20028;-76
2023/09/25 01:22:53;;;;;;;8.55;3.00;;;16.70;99.90;;;16.10;100.00;101492.19;4195607;28;20027;-76
2023/09/25 01:24:54;;;;;;;4.50;3.17;;;16.70;99.90;;;16.12;100.00;101494.69;4191989;28;20029;-75
2023/09/25 01:26:55;;;;;;;8.82;3.80;;;16.70;99.90;;;16.16;100.00;101499.47;4197132;28;20082;-75
2023/09/25 01:28:56;;;;;;;5.07;2.65;;;16.70;99.90;;;16.18;100.00;101502.81;4185216;28;20037;-75
2023/09/25 01:30:58;;;;;;;7.70;2.85;;;16.80;99.90;;;16.20;100.00;101500.81;4184905;28;20025;-75
2023/09/25 01:32:59;;;;;;;6.00;2.58;;;16.80;99.90;;;16.20;100.00;101492.81;4193488;28;20059;-75
2023/09/25 01:35:01;;;;;;;6.47;3.08;;;16.80;99.90;;;16.25;100.00;101501.09;4187781;28;20032;-75
2023/09/25 01:37:05;;;;;;;3.53;2.15;;;16.80;99.90;;;16.26;100.00;101501.94;4185284;28;20036;-75
2023/09/25 01:39:08;;;;;;;3.53;2.28;;;16.80;99.90;;;16.26;100.00;101494.78;4185006;28;20098;-75
2023/09/25 01:41:09;;;;;;;7.45;3.40;;;16.90;99.90;;;16.29;100.00;101493.59;4185087;28;20059;-75
2023/09/25 01:43:09;;;;;;;5.28;2.60;;;16.90;99.90;;;16.32;100.00;101491.41;4184046;28;20428;-75
2023/09/25 01:45:13;;;;;;;8.95;2.95;;;16.90;99.90;;;16.38;100.00;101497.88;4216783;28;20099;-75
2023/09/25 01:47:14;;;;;;;9.02;3.20;;;16.90;99.90;;;16.46;100.00;101500.47;4195041;28;20025;-75
2023/09/25 01:49:15;;;;;;;8.63;2.97;;;17.00;99.90;;;16.47;100.00;101500.31;4190661;28;20033;-75
2023/09/25 01:51:16;;;;;;;5.38;2.22;;;17.10;99.90;;;16.48;100.00;101502.00;4185017;28;20040;-75
2023/09/25 01:53:16;;;;;;;5.82;2.35;;;17.10;99.90;;;16.51;100.00;101503.47;4184858;28;20040;-75
2023/09/25 01:55:17;;;;;;;5.63;2.53;;;17.10;99.90;;;16.50;100.00;101499.13;4185072;28;20033;-75
2023/09/25 01:57:18;;;;;;;6.55;2.85;;;17.10;99.90;;;16.54;100.00;101498.66;4192591;28;20029;-75
2023/09/25 01:59:19;;;;;;;7.00;2.78;;;17.20;99.90;;;16.56;100.00;101501.97;4188166;28;20055;-75
2023/09/25 02:01:21;;;;;;;6.30;2.35;;;17.20;99.90;;;16.61;100.00;101505.94;4181856;28;20025;-75
2023/09/25 02:03:21;;;;;;;4.60;2.58;;;17.20;99.90;;;16.63;100.00;101501.25;4190370;28;20395;-75
2023/09/25 02:05:22;;;;;;;4.10;1.98;;;17.20;99.90;;;16.64;100.00;101500.22;4201514;28;20032;-75
2023/09/25 02:07:23;;;;;;;3.10;1.77;;;17.20;99.90;;;16.64;100.00;101500.22;4201334;28;20082;-75
2023/09/25 02:09:24;;;;;;;4.65;2.40;;;17.20;99.90;;;16.64;100.00;101497.56;4184686;28;20021;-75
2023/09/25 02:11:25;;;;;;;5.55;1.98;;;17.30;99.90;;;16.67;100.00;101505.19;4184933;28;20480;-75
2023/09/25 02:13:26;;;;;;;4.82;2.00;;;17.30;99.90;;;16.71;100.00;101514.50;4192124;28;20131;-75
2023/09/25 02:15:27;;;;;;;4.95;1.70;;;17.30;99.90;;;16.71;100.00;101506.53;4184583;28;20078;-75
2023/09/25 02:17:29;;;;;;;4.18;1.80;;;17.30;99.90;;;16.72;100.00;101509.03;4185503;28;20443;-75
2023/09/25 02:19:29;;;;;;;4.50;1.85;;;17.40;99.90;;;16.71;100.00;101509.19;4188576;28;20029;-75
2023/09/25 02:21:30;;;;;;;3.30;2.08;;;17.30;99.90;;;16.70;100.00;101502.19;4183680;28;20044;-75
2023/09/25 02:23:31;;;;;;;2.33;1.60;;;17.30;99.90;;;16.67;100.00;101502.53;4196172;28;20037;-75
2023/09/25 02:25:32;;;;;;;6.80;2.20;;;17.30;99.90;;;16.68;100.00;101513.03;4185569;28;20021;-75
2023/09/25 02:27:33;;;;;;;3.47;2.20;;;17.30;99.90;;;16.67;100.00;101506.03;4186451;28;20115;-75
2023/09/25 02:29:34;;;;;;;4.18;2.35;;;17.30;99.90;;;16.62;100.00;101499.59;4193933;28;20025;-76
2023/09/25 02:31:35;;;;;;;5.38;2.17;;;17.30;99.90;;;16.61;100.00;101503.28;4194234;28;20123;-75
2023/09/25 02:33:35;;;;;;;2.17;1.60;;;17.20;99.90;;;16.62;100.00;101507.56;4183537;28;20028;-75
2023/09/25 02:35:37;;;;;;;2.80;1.88;;;17.20;99.90;;;16.62;100.00;101507.56;4188426;28;20029;-75
2023/09/25 02:37:40;;;;;;;4.70;2.28;;;17.20;99.90;;;16.63;100.00;101512.75;4188300;28;20024;-75
2023/09/25 02:39:41;;;;;;;3.83;3.10;;;17.20;99.90;;;16.60;100.00;101507.78;4190223;28;20107;-75
2023/09/25 02:41:42;;;;;;;7.70;2.63;;;17.20;99.90;;;16.65;100.00;101513.38;4196660;28;20032;-75
2023/09/25 02:43:42;;;;;;;4.80;2.47;;;17.30;99.90;;;16.68;100.00;101506.88;4205571;28;20028;-75
2023/09/25 02:45:45;;;;;;;4.90;2.67;;;17.30;99.90;;;16.68;100.00;101514.88;4195285;28;20029;-75
2023/09/25 02:47:46;;;;;;;10.07;2.92;;;17.30;99.90;;;16.70;100.00;101505.69;4191795;28;20027;-75
2023/09/25 02:49:46;;;;;;;7.32;3.45;;;17.30;99.90;;;16.76;100.00;101517.47;4189070;28;20018;-75
2023/09/25 02:51:47;;;;;;;7.25;2.60;;;17.40;99.90;;;16.82;100.00;101516.75;4187551;28;20401;-75
2023/09/25 02:53:48;;;;;;;11.32;3.63;;;17.40;99.90;;;16.83;100.00;101519.25;4187559;28;20017;-75
2023/09/25 02:55:50;;;;;;;4.95;2.30;;;17.40;99.90;;;16.86;100.00;101515.41;4187434;28;20036;-75
2023/09/25 02:57:50;;;;;;;9.60;3.13;;;17.40;99.90;;;16.88;100.00;101522.22;4199520;28;20024;-75
2023/09/25 02:59:51;;;;;;;6.47;2.65;;;17.50;99.90;;;16.91;100.00;101521.03;4199273;28;20029;-75
2023/09/25 03:01:52;;;;;;;6.70;2.80;;;17.50;99.90;;;16.90;100.00;101519.38;4187406;28;20025;-75
2023/09/25 03:03:53;;;;;;;6.00;2.00;;;17.50;99.90;;;16.91;100.00;101516.53;4196048;28;20451;-75
2023/09/25 03:05:54;;;;;;;7.22;2.35;;;17.50;99.90;;;16.93;100.00;101516.38;4187187;28;20028;-75
2023/09/25 03:07:55;;;;;;;8.82;2.67;;;17.50;99.90;;;16.94;100.00;101518.00;4191109;28;20036;-75
2023/09/25 03:09:56;;;;;;;10.48;2.92;;;17.50;99.90;;;16.96;100.00;101516.00;4204031;28;20050;-75
2023/09/25 03:11:56;;;;;;;10.80;3.20;;;17.50;99.90;;;16.97;100.00;101522.97;4203785;28;20040;-75
2023/09/25 03:13:58;;;;;;;11.18;3.50;;;17.50;99.90;;;16.95;100.00;101509.84;4189834;28;20385;-75
2023/09/25 03:15:59;;;;;;;11.50;2.90;;;17.60;99.90;;;17.00;100.00;101522.63;4185721;28;20048;-75
2023/09/25 03:18:00;;;;;;;6.70;3.05;;;17.60;99.90;;;17.01;100.00;101524.28;4193479;28;20012;-75
2023/09/25 03:20:12;;;;;;;7.45;2.85;;;17.60;99.90;;;17.04;100.00;101524.75;4194190;28;20028;-75
2023/09/25 03:22:13;;;;;;;7.30;3.45;;;17.60;99.90;;;17.03;100.00;101525.75;4198522;28;20059;-75
2023/09/25 03:24:14;;;;;;;7.95;3.13;;;17.70;99.90;;;17.05;100.00;101528.25;4189907;28;20029;-75
2023/09/25 03:26:20;;;;;;;9.23;4.20;;;17.60;99.90;;;17.03;100.00;101524.94;4187170;28;20095;-75
2023/09/25 03:28:20;;;;;;;9.70;2.90;;;17.60;99.90;;;17.03;100.00;101530.25;4196952;28;20020;-75
2023/09/25 03:30:21;;;;;;;8.60;3.13;;;17.60;99.90;;;17.02;100.00;101523.28;4188647;28;20024;-75
2023/09/25 03:32:22;;;;;;;8.68;2.83;;;17.60;99.90;;;17.00;100.00;101525.28;4186951;28;20416;-75
2023/09/25 03:34:23;;;;;;;11.82;3.80;;;17.60;99.90;;;16.99;100.00;101523.66;4186869;28;20029;-75
2023/09/25 03:36:24;;;;;;;9.73;3.22;;;17.60;99.90;;;16.97;100.00;101526.47;4199468;28;20028;-75
2023/09/25 03:38:25;;;;;;;12.52;3.53;;;17.60;99.90;;;16.98;100.00;101527.31;4199152;28;20086;-75
2023/09/25 03:40:26;;;;;;;5.00;2.90;;;17.60;99.90;;;16.98;100.00;101528.13;4189342;28;20032;-75
2023/09/25 03:42:27;;;;;;;9.23;3.70;;;17.60;99.90;;;16.97;100.00;101522.97;4186757;28;20052;-75
2023/09/25 03:44:28;;;;;;;11.00;3.60;;;17.60;99.90;;;16.97;100.00;101525.63;4197100;28;20041;-75
2023/09/25 03:46:29;;;;;;;8.80;3.55;;;17.60;99.90;;;16.98;100.00;101529.97;4202876;28;20029;-75
2023/09/25 03:48:30;;;;;;;11.32;3.25;;;17.60;99.90;;;16.98;100.00;101532.63;4198199;28;20037;-75
2023/09/25 03:50:31;;;;;;;6.57;3.17;;;17.60;99.90;;;16.99;100.00;101531.63;4185518;28;20066;-75
2023/09/25 03:52:32;;;;;;;6.88;3.47;;;17.60;99.90;;;16.99;100.00;101535.09;4195891;28;20076;-75
2023/09/25 03:54:33;;;;;;;7.70;2.92;;;17.60;99.90;;;17.01;100.00;101534.94;4198448;28;20020;-75
2023/09/25 03:56:34;;;;;;;8.23;3.33;;;17.60;99.90;;;17.01;100.00;101532.28;4202690;28;20025;-75
2023/09/25 03:58:35;;;;;;;10.65;3.75;;;17.60;99.90;;;17.00;100.00;101533.28;4196042;28;20028;-75
2023/09/25 04:00:38;;;;;;;10.13;3.38;;;17.60;99.90;;;17.00;100.00;101535.94;4185988;28;20033;-75
2023/09/25 04:02:38;;;;;;;11.15;4.55;;;17.60;99.90;;;17.03;100.00;101541.75;4198684;28;20123;-75
2023/09/25 04:04:39;;;;;;;12.32;4.15;;;17.60;99.90;;;17.02;100.00;101534.75;4186319;28;20025;-75
2023/09/25 04:06:40;;;;;;;10.15;3.83;;;17.60;99.90;;;17.04;100.00;101537.25;4188614;28;20029;-75
2023/09/25 04:08:41;;;;;;;10.68;3.30;;;17.60;99.90;;;17.04;100.00;101534.59;4185912;28;20033;-75
2023/09/25 04:10:43;;;;;;;10.57;3.67;;;17.60;99.90;;;17.07;100.00;101539.56;4185082;28;20029;-75
2023/09/25 04:12:44;;;;;;;9.45;3.47;;;17.70;99.90;;;17.07;100.00;101531.56;4188328;28;20090;-75
2023/09/25 04:14:45;;;;;;;7.18;2.78;;;17.70;99.90;;;17.07;100.00;101532.41;4191283;28;20047;-75
2023/09/25 04:16:46;;;;;;;11.88;3.92;;;17.70;99.90;;;17.06;100.00;101538.72;4202753;28;20482;-75
2023/09/25 04:18:47;;;;;;;8.07;3.55;;;17.70;99.90;;;17.09;100.00;101534.88;4199902;28;20036;-75
2023/09/25 04:20:49;;;;;;;12.52;4.40;;;17.70;99.90;;;17.09;100.00;101529.53;4186604;28;20025;-75
2023/09/25 04:22:57;;;;;;;13.38;3.25;;;17.70;99.90;;;17.11;100.00;101539.00;4186158;28;20542;-75
2023/09/25 04:24:58;;;;;;;10.30;3.95;;;17.70;99.90;;;17.10;100.00;101532.03;4194640;28;20075;-75
2023/09/25 04:27:01;;;;;;;11.98;3.42;;;17.70;99.90;;;17.12;100.00;101545.19;4184684;28;20048;-75
2023/09/25 04:29:04;;;;;;;13.35;3.35;;;17.70;99.90;;;17.13;100.00;101538.84;4195418;28;20025;-75
2023/09/25 04:31:05;;;;;;;13.63;4.13;;;17.70;99.90;;;17.10;100.00;101545.38;4185808;28;20033;-75
2023/09/25 04:33:07;;;;;;;10.82;4.22;;;17.70;99.90;;;17.09;100.00;101541.03;4185920;28;20029;-75
2023/09/25 04:35:08;;;;;;;11.23;3.33;;;17.70;99.90;;;17.09;100.00;101540.19;4189175;28;20028;-75
2023/09/25 04:37:09;;;;;;;7.00;2.80;;;17.70;99.90;;;17.08;100.00;101543.91;4185896;28;20025;-75
2023/09/25 04:39:10;;;;;;;13.18;3.85;;;17.70;99.90;;;17.07;100.00;101534.22;4192789;28;20401;-75
2023/09/25 04:41:11;;;;;;;12.80;3.60;;;17.70;99.90;;;17.07;100.00;101540.41;4184534;28;20029;-76
2023/09/25 04:43:12;;;;;;;8.18;3.08;;;17.70;99.90;;;17.06;100.00;101540.56;4185781;28;20025;-75
2023/09/25 04:45:16;;;;;;;7.65;3.08;;;17.70;99.90;;;17.06;100.00;101536.06;4187808;28;20033;-75
2023/09/25 04:47:17;;;;;;;;;;;17.70;99.90;;;16.98;100.00;101538.81;4202613;28;20025;-75
2023/09/25 04:49:18;;;;;;;8.88;3.10;;;17.60;99.90;;;17.01;100.00;101537.63;4190952;28;19991;-75
2023/09/25 04:51:20;;;;;;;6.35;2.95;;;17.60;99.90;;;16.98;100.00;101540.63;4185533;28;20056;-75
2023/09/25 04:53:21;;;;;;;10.52;3.30;;;17.60;99.90;;;16.98;100.00;101543.31;4187859;28;20436;-75
2023/09/25 04:55:22;;;;;;;8.48;3.88;;;17.60;99.90;;;16.96;100.00;101548.81;4185620;28;20040;-75
2023/09/25 04:57:24;;;;;;;8.80;3.22;;;17.60;99.90;;;16.98;100.00;101541.47;4194326;28;20021;-75
2023/09/25 04:59:24;;;;;;;8.50;4.03;;;17.60;99.90;;;16.97;100.00;101542.47;4187801;28;20074;-75
2023/09/25 05:01:25;;;;;;;7.97;2.58;;;17.60;99.90;;;16.98;100.00;101544.13;4185382;28;20017;-75
2023/09/25 05:03:26;;;;;;;11.25;3.13;;;17.60;99.90;;;16.98;100.00;101543.31;4185551;28;20468;-75
2023/09/25 05:05:28;;;;;;;11.18;3.22;;;17.60;99.90;;;17.00;100.00;101544.78;4193993;28;20017;-75
2023/09/25 05:07:28;;;;;;;8.50;3.63;;;17.60;99.90;;;17.02;100.00;101545.41;4183848;28;20032;-75
2023/09/25 05:09:29;;;;;;;5.80;3.30;;;17.60;99.90;;;17.03;100.00;101544.41;4185411;28;20029;-75
2023/09/25 05:11:30;;;;;;;8.70;3.40;;;17.60;99.90;;;17.05;100.00;101549.59;4185489;28;20055;-75
2023/09/25 05:13:32;;;;;;;7.55;3.58;;;17.60;99.90;;;17.05;100.00;101544.25;4185412;28;20025;-75
2023/09/25 05:15:33;;;;;;;10.38;3.50;;;17.60;99.90;;;17.05;100.00;101545.06;4185064;28;20025;-75
2023/09/25 05:17:36;;;;;;;10.38;3.13;;;17.70;99.90;;;17.08;100.00;101549.22;4200108;28;20044;-75
2023/09/25 05:19:36;;;;;;;8.55;3.20;;;17.70;99.90;;;17.08;100.00;101555.38;4194389;28;20567;-75
2023/09/25 05:21:37;;;;;;;9.43;3.25;;;17.70;99.90;;;17.12;100.00;101555.84;4185320;28;20032;-75
2023/09/25 05:23:38;;;;;;;7.60;3.15;;;17.70;99.90;;;17.11;100.00;101554.22;4185367;28;20028;-75
2023/09/25 05:25:39;;;;;;;10.95;3.97;;;17.70;99.90;;;17.13;100.00;101555.69;4200081;28;20024;-75
2023/09/25 05:27:44;;;;;;;10.20;3.28;;;17.70;99.90;;;17.15;100.00;101550.16;4186148;28;20036;-75
2023/09/25 05:29:45;;;;;;;4.80;2.10;;;17.70;99.90;;;17.13;100.00;101550.34;4190359;28;20025;-75
2023/09/25 05:31:46;;;;;;;7.38;2.70;;;17.70;99.90;;;17.15;100.00;101556.31;4185227;28;20052;-75
2023/09/25 05:33:47;;;;;;;8.02;2.95;;;17.80;99.90;;;17.12;100.00;101546.00;4185015;28;20029;-75
2023/09/25 05:35:48;;;;;;;9.20;3.83;;;17.80;99.90;;;17.15;100.00;101555.50;4189203;28;20040;-75
2023/09/25 05:37:49;;;;;;;10.45;3.60;;;17.80;99.90;;;17.18;100.00;101565.78;4194019;28;20091;-75
2023/09/25 05:39:50;;;;;;;10.82;3.40;;;17.80;99.90;;;17.19;100.00;101566.63;4188575;28;20067;-75
2023/09/25 05:41:51;;;;;;;7.28;2.75;;;17.70;99.90;;;17.19;100.00;101569.28;4184957;28;20033;-75
2023/09/25 05:43:53;;;;;;;11.73;4.05;;;17.70;99.90;;;17.20;100.00;101569.13;4190611;28;20444;-75
2023/09/25 05:45:54;;;;;;;11.05;3.42;;;17.80;99.90;;;17.17;100.00;101555.31;4191344;28;20060;-75
2023/09/25 05:47:55;;;;;;;10.50;3.47;;;17.80;99.90;;;17.17;100.00;101563.31;4185075;28;20028;-75
2023/09/25 05:49:56;;;;;;;15.40;4.63;;;17.80;99.90;;;17.15;100.00;101566.16;4198990;28;20028;-75
2023/09/25 05:51:57;;;;;;;11.55;3.28;;;17.80;99.90;;;17.10;100.00;101568.53;4190442;28;20407;-75
2023/09/25 05:53:58;;;;;;;18.70;4.00;;;17.70;99.90;;;17.11;100.00;101572.88;4200355;28;20021;-75
2023/09/25 05:55:59;;;;;;;10.85;3.60;;;17.70;99.90;;;17.12;100.00;101577.16;4201544;28;20020;-75
2023/09/25 05:58:00;;;;;;;11.27;3.40;;;17.70;99.90;;;17.14;100.00;101575.19;4199006;28;20032;-75
2023/09/25 06:00:01;;;;;;;14.98;4.10;;;17.70;99.90;;;17.08;100.00;101570.56;4183671;28;20029;-75
2023/09/25 06:02:02;;;;;;;15.85;4.57;;;17.70;99.90;;;17.03;100.00;101581.75;4183842;28;20473;-75
2023/09/25 06:04:03;;;;;;;19.17;4.10;;;17.60;99.90;;;16.99;100.00;101579.63;4183666;28;20025;-75
2023/09/25 06:06:05;;;;;;;10.40;3.28;;;17.60;99.90;;;16.97;100.00;101581.63;4196865;28;20020;-76
2023/09/25 06:08:06;;;;;;;7.18;3.22;;;17.60;99.90;;;16.92;100.00;101589.31;4183796;28;20017;-76
2023/09/25 06:10:08;;;;;;;11.85;3.20;;;17.50;99.90;;;16.87;100.00;101599.69;4184956;28;20506;-76
2023/09/25 06:12:09;;;;;;;13.15;4.05;;;17.40;99.90;;;16.79;100.00;101597.03;4184899;28;20073;-75
2023/09/25 06:14:10;;;;;;;10.30;3.75;;;17.40;99.90;;;16.74;100.00;101594.94;4184800;28;20388;-75
2023/09/25 06:16:12;;;;;;;12.27;3.13;;;17.40;99.90;;;16.78;100.00;101606.91;4187752;28;20032;-76
2023/09/25 06:18:13;;;;;;;8.80;3.70;;;17.40;99.90;;;16.86;100.00;101608.69;4192804;28;20021;-76
2023/09/25 06:20:17;;;;;;;14.23;4.50;;;17.40;99.90;;;16.91;100.00;101616.97;4188192;28;20078;-76
2023/09/25 06:22:18;;;;;;;12.15;3.42;;;17.50;99.90;;;16.92;100.00;101614.13;4187841;28;20036;-76
2023/09/25 06:24:19;;;;;;;11.43;3.45;;;17.50;99.90;;;16.97;100.00;101614.44;4191280;28;20036;-76
2023/09/25 06:26:20;;;;;;;6.82;3.25;;;17.60;99.90;;;17.03;100.00;101610.22;4192092;28;20480;-75
2023/09/25 06:28:24;;;;;;;8.30;3.33;;;17.60;99.90;;;17.09;100.00;101615.69;4192262;28;20032;-76
2023/09/25 06:30:24;;;;;;;11.23;3.40;;;17.60;99.90;;;17.15;100.00;101622.13;4187520;28;20032;-76
2023/09/25 06:32:25;;;;;;;8.35;2.83;;;17.70;99.90;;;17.22;100.00;101625.78;4187911;28;20029;-76
2023/09/25 06:34:26;;;;;;;14.40;4.40;;;17.70;99.90;;;17.23;100.00;101624.78;4187832;28;20017;-75
2023/09/25 06:36:27;;;;;;;11.30;3.78;;;17.80;99.90;;;17.29;100.00;101625.91;4201124;28;20507;-75
2023/09/25 06:38:28;;;;;;;7.45;2.92;;;17.90;99.90;;;17.31;100.00;101624.69;4189730;28;20567;-76
2023/09/25 06:40:29;;;;;;;7.45;2.83;;;17.90;99.90;;;17.36;100.00;101632.16;4190994;28;20454;-76
2023/09/25 06:42:30;;;;;;;8.05;2.55;;;17.90;99.90;;;17.39;100.00;101632.63;4186531;28;20021;-76
2023/09/25 06:44:30;;;;;;;14.23;3.83;;;18.00;99.90;;;17.44;100.00;101634.78;4187493;28;20112;-76
2023/09/25 06:46:34;;;;;;;13.75;3.85;;;18.00;99.90;;;17.46;100.00;101638.09;4192130;28;20106;-76
2023/09/25 06:48:35;;;;;;;11.13;3.67;;;18.00;99.90;;;17.51;100.00;101647.22;4190668;28;20071;-76
2023/09/25 06:50:36;;;;;;;15.05;3.72;;;18.10;99.90;;;17.60;100.00;101646.16;4186664;28;20030;-75
2023/09/25 06:52:37;;;;;;;14.73;3.20;;;18.10;99.90;;;17.64;100.00;101647.47;4198504;28;20021;-75
2023/09/25 06:54:38;;;;;;;7.97;3.50;;;18.20;99.90;;;17.69;100.00;101650.44;4188805;28;20025;-76
2023/09/25 06:56:39;;;;;;;4.05;2.47;;;18.20;99.90;;;17.75;100.00;101643.53;4189593;28;20025;-76
2023/09/25 06:58:40;;;;;;;7.38;3.08;;;18.30;99.90;;;17.83;100.00;101656.00;4193696;28;20024;-75
2023/09/25 07:00:43;;;;;;;5.78;2.80;;;18.30;99.90;;;17.87;100.00;101649.25;4187383;28;20032;-74
2023/09/25 07:02:45;;;;;;;10.20;3.15;;;18.40;99.90;;;17.92;100.00;101650.38;4200345;28;20142;-74
2023/09/25 07:04:47;;;;;;;6.10;2.45;;;18.50;99.90;;;18.03;100.00;101657.13;4186080;28;20037;-75
2023/09/25 07:06:49;;;;;;;6.40;2.50;;;18.60;99.90;;;18.12;100.00;101661.38;4195395;28;20021;-74
2023/09/25 07:08:50;;;;;;;8.02;3.38;;;18.60;99.90;;;18.16;100.00;101658.13;4190993;28;20025;-74
2023/09/25 07:10:51;;;;;;;7.80;3.40;;;18.70;99.90;;;18.20;100.00;101661.28;4187117;28;20025;-74
2023/09/25 07:12:52;;;;;;;10.55;3.88;;;18.70;99.90;;;18.21;100.00;101650.41;4187272;28;20040;-74
2023/09/25 07:14:56;;;;;;;14.15;4.78;;;18.80;99.90;;;18.30;100.00;101659.16;4193627;28;20024;-74
2023/09/25 07:16:56;;;;;;;16.42;3.97;;;18.80;99.90;;;18.38;100.00;101663.56;4187298;28;20033;-74
2023/09/25 07:18:58;;;;;;;16.98;4.70;;;18.80;99.90;;;18.50;100.00;101668.31;4200394;28;20029;-74
2023/09/25 07:20:59;;;;;;;16.95;4.93;;;19.00;99.90;;;18.60;100.00;101668.88;4203753;28;20052;-74
2023/09/25 07:22:59;;;;;;;14.68;3.90;;;19.10;99.90;;;18.70;100.00;101673.91;4203668;28;20044;-74
2023/09/25 07:25:00;;;;;;;12.20;3.88;;;19.10;99.90;;;18.80;100.00;101674.44;4203646;28;20029;-74
2023/09/25 07:27:01;;;;;;;18.38;5.25;;;19.20;99.90;;;18.84;100.00;101677.59;4185285;28;20033;-74
2023/09/25 07:29:02;;;;;;;18.02;4.32;;;19.30;99.90;;;18.84;100.00;101677.59;4202874;28;20554;-74
2023/09/25 07:31:05;;;;;;;19.25;4.50;;;19.30;99.90;;;18.87;100.00;101669.19;4194963;28;20025;-74
2023/09/25 07:33:07;;;;;;;15.52;2.95;;;19.40;99.90;;;18.90;100.00;101676.84;4185739;28;20431;-74
2023/09/25 07:35:10;;;;;;;12.63;4.35;;;19.40;99.90;;;18.97;100.00;101683.06;4200125;28;20023;-74
2023/09/25 07:37:12;;;;;;;16.75;4.50;;;19.50;99.90;;;18.92;100.00;101674.78;4189451;28;20028;-75
2023/09/25 07:39:15;;;;;;;9.93;2.95;;;19.50;99.90;;;18.87;100.00;101683.41;4186655;28;20540;-74
2023/09/25 07:41:18;;;;;;;9.13;3.53;;;19.40;99.90;;;18.84;100.00;101678.41;4186786;28;20137;-74
2023/09/25 07:43:23;;;;;;;8.70;3.58;;;19.40;99.90;;;18.85;100.00;101681.91;4191843;28;20024;-74
2023/09/25 07:45:25;;;;;;;10.88;3.13;;;19.40;99.90;;;18.82;100.00;101675.09;4189767;28;20027;-74
2023/09/25 07:47:29;;;;;;;14.40;3.92;;;19.40;99.90;;;18.76;100.00;101679.34;4185479;28;20512;-74
2023/09/25 07:49:29;;;;;;;;;;;19.30;99.90;;;18.58;100.00;101675.38;4199028;28;20051;-75
2023/09/25 07:51:32;;;;;;;7.20;3.30;;;19.20;99.90;;;18.53;100.00;101675.97;4186529;28;19909;-74
2023/09/25 07:53:39;;;;;;;9.27;3.60;;;19.20;99.90;;;18.55;100.00;101673.91;4186614;28;20128;-74
2023/09/25 07:55:41;;;;;;;13.38;4.38;;;19.10;99.90;;;18.74;100.00;101678.72;4186706;28;20025;-74
2023/09/25 07:57:44;;;;;;;11.32;3.63;;;19.30;99.90;;;19.05;100.00;101685.66;4198250;28;20113;-74
2023/09/25 07:59:46;;;;;;;9.95;3.17;;;19.60;99.90;;;19.59;100.00;101684.19;4185112;28;20479;-74
2023/09/25 08:01:47;;;;;;;15.57;4.35;;;20.00;99.90;;;19.96;100.00;101687.59;4193097;28;20510;-74
2023/09/25 08:03:53;;;;;;;13.00;4.35;;;20.40;99.90;;;20.12;100.00;101679.25;4193049;28;20025;-74
2023/09/25 08:05:54;;;;;;;14.52;4.30;;;20.60;99.90;;;20.25;100.00;101680.19;4198519;28;20031;-74
2023/09/25 08:07:55;;;;;;;10.50;3.50;;;20.70;99.90;;;20.41;100.00;101677.22;4186380;28;20021;-74
2023/09/25 08:09:57;;;;;;;13.95;3.55;;;20.80;99.90;;;20.56;100.00;101678.94;4186464;28;20029;-74
2023/09/25 08:11:57;;;;;;;11.25;3.42;;;20.90;99.90;;;20.62;100.00;101673.63;4195377;28;20032;-74
2023/09/25 08:13:59;;;;;;;9.30;3.33;;;21.10;99.90;;;20.89;100.00;101685.28;4185016;28;20032;-74
2023/09/25 08:16:06;;;;;;;11.38;3.33;;;21.30;99.90;;;21.09;100.00;101688.06;4189540;28;20108;-74
2023/09/25 08:18:07;;;;;;;12.80;3.65;;;21.50;99.90;;;21.21;100.00;101686.44;4194140;28;20020;-74
2023/09/25 08:20:20;;;;;;;10.85;2.58;;;21.70;99.90;;;21.39;100.00;101686.69;4186189;28;20051;-75